Time;durP1;ratioP1;P1;durP2;ratioP2;P2;SDS_P1;SDS_P2;PMS_P1;PMS_P2;Temp;Humidity;BMP_temperature;BMP_pressure;BME280_temperature;BME280_humidity;BME280_pressure;Samples;Min_cycle;Max_cycle;Signal;HPM_P1;HPM_P2
2023/07/06 00:01:48;;;;;;;1.88;1.77;;;18.60;99.90;;;;;;5099538;28;20252;-78
2023/07/06 00:04:15;;;;;;;1.50;1.40;;;18.60;99.90;;;;;;5101510;28;20545;-77
2023/07/06 00:06:42;;;;;;;1.60;1.50;;;18.60;99.90;;;;;;5099094;28;20812;-78
2023/07/06 00:09:10;;;;;;;1.95;1.70;;;18.60;99.90;;;;;;5100024;28;20269;-77
2023/07/06 00:11:40;;;;;;;1.67;1.58;;;18.60;99.90;;;;;;5094695;28;20322;-78
2023/07/06 00:14:08;;;;;;;1.52;1.42;;;18.60;99.90;;;;;;5101089;28;20197;-77
2023/07/06 00:16:35;;;;;;;1.63;1.52;;;18.70;99.90;;;;;;5099351;28;20211;-78
2023/07/06 00:19:03;;;;;;;1.80;1.70;;;18.70;99.90;;;;;;5103218;28;20200;-79
2023/07/06 00:21:30;;;;;;;1.70;1.60;;;18.70;99.90;;;;;;5103683;28;20959;-77
2023/07/06 00:23:58;;;;;;;1.08;1.08;;;18.80;99.90;;;;;;5103019;28;21382;-77
2023/07/06 00:26:25;;;;;;;1.77;1.42;;;18.70;99.90;;;;;;5101413;28;20694;-77
2023/07/06 00:28:55;;;;;;;1.75;1.65;;;18.60;99.90;;;;;;5100924;28;20261;-77
2023/07/06 00:31:32;;;;;;;1.50;1.40;;;18.60;99.90;;;;;;5100996;28;20218;-77
2023/07/06 00:34:03;;;;;;;1.65;1.55;;;18.70;99.90;;;;;;5095653;28;20208;-78
2023/07/06 00:36:31;;;;;;;1.52;1.42;;;18.60;99.90;;;;;;5100427;28;20192;-77
2023/07/06 00:39:01;;;;;;;2.08;1.50;;;18.60;99.90;;;;;;5100128;28;20891;-77
2023/07/06 00:41:28;;;;;;;1.50;1.40;;;18.60;99.90;;;;;;5103289;28;20228;-76
2023/07/06 00:43:57;;;;;;;1.40;1.30;;;18.60;99.90;;;;;;5099513;28;20211;-77
2023/07/06 00:46:36;;;;;;;1.92;1.50;;;18.50;99.90;;;;;;5101241;28;20868;-77
2023/07/06 00:49:05;;;;;;;1.67;1.58;;;18.40;99.90;;;;;;5097130;28;20593;-76
2023/07/06 00:51:37;;;;;;;1.55;1.45;;;18.40;99.90;;;;;;5100327;28;20225;-77
2023/07/06 00:54:08;;;;;;;1.55;1.45;;;18.30;99.90;;;;;;5097080;28;20205;-76
2023/07/06 00:56:38;;;;;;;1.40;1.30;;;18.30;99.90;;;;;;5098532;28;20189;-77
2023/07/06 00:59:09;;;;;;;4.07;1.70;;;18.30;99.90;;;;;;5099990;28;20205;-76
2023/07/06 01:01:41;;;;;;;1.65;1.45;;;18.30;99.90;;;;;;5099288;28;20219;-76
2023/07/06 01:04:11;;;;;;;1.90;1.70;;;18.40;99.90;;;;;;5096509;28;20246;-76
2023/07/06 01:06:42;;;;;;;1.67;1.58;;;18.40;99.90;;;;;;5101558;28;20795;-76
2023/07/06 01:09:10;;;;;;;1.50;1.40;;;18.40;99.90;;;;;;5097300;28;20270;-77
2023/07/06 01:11:38;;;;;;;1.40;1.30;;;18.40;99.90;;;;;;5096211;28;20209;-77
2023/07/06 01:14:12;;;;;;;1.50;1.40;;;18.40;99.90;;;;;;5099430;28;20196;-77
2023/07/06 01:16:44;;;;;;;1.60;1.50;;;18.30;99.90;;;;;;5097246;28;20287;-77
2023/07/06 01:19:38;;;;;;;1.50;1.40;;;18.30;99.90;;;;;;5099821;28;20240;-78
2023/07/06 01:22:23;;;;;;;1.23;1.13;;;18.30;99.90;;;;;;5095696;28;20695;-76
2023/07/06 01:25:11;;;;;;;1.15;1.15;;;18.30;99.90;;;;;;5100416;28;20576;-77
2023/07/06 01:27:55;;;;;;;1.50;1.40;;;18.30;99.90;;;;;;5098487;28;20189;-77
2023/07/06 01:30:49;;;;;;;1.27;1.17;;;18.30;99.90;;;;;;5100734;28;20265;-76
2023/07/06 01:33:24;;;;;;;1.52;1.42;;;18.30;99.90;;;;;;5078636;28;20325;-77
2023/07/06 01:35:57;;;;;;;1.55;1.45;;;18.40;99.90;;;;;;5102333;28;20248;-77
2023/07/06 01:38:24;;;;;;;1.35;1.30;;;18.30;99.90;;;;;;5100949;28;20201;-76
2023/07/06 01:40:51;;;;;;;1.10;1.10;;;18.40;99.90;;;;;;5102173;28;20225;-77
2023/07/06 01:43:20;;;;;;;2.33;1.50;;;18.30;99.90;;;;;;5099578;28;20202;-77
2023/07/06 01:45:48;;;;;;;1.60;1.50;;;18.40;99.90;;;;;;5100997;28;20288;-77
2023/07/06 01:48:17;;;;;;;1.13;1.02;;;18.50;99.90;;;;;;5104160;28;20288;-78
2023/07/06 01:50:52;;;;;;;1.65;1.55;;;18.50;99.90;;;;;;5104293;28;20269;-76
2023/07/06 01:53:25;;;;;;;1.52;1.42;;;18.50;99.90;;;;;;5104928;28;20255;-78
2023/07/06 01:55:59;;;;;;;1.52;1.42;;;18.50;99.90;;;;;;5102150;28;21006;-77
2023/07/06 01:58:32;;;;;;;1.55;1.40;;;18.50;99.90;;;;;;5104702;28;20196;-76
2023/07/06 02:01:05;;;;;;;2.13;1.40;;;18.60;99.90;;;;;;5102199;28;20217;-77
2023/07/06 02:03:36;;;;;;;1.40;1.30;;;18.50;99.90;;;;;;5104286;27;20204;-77
2023/07/06 02:06:04;;;;;;;1.83;1.65;;;18.50;99.90;;;;;;5100961;28;20205;-77
2023/07/06 02:08:31;;;;;;;1.55;1.45;;;18.40;99.90;;;;;;5104936;28;20189;-78
2023/07/06 02:10:59;;;;;;;2.08;1.45;;;18.30;99.90;;;;;;5098036;28;20333;-77
2023/07/06 02:13:26;;;;;;;1.85;1.45;;;18.10;99.90;;;;;;5104094;28;20205;-77
2023/07/06 02:15:53;;;;;;;1.50;1.40;;;17.90;99.90;;;;;;5106563;28;20236;-77
2023/07/06 02:18:20;;;;;;;1.48;1.38;;;17.80;99.90;;;;;;5115879;28;20197;-78
2023/07/06 02:20:48;;;;;;;1.23;1.13;;;17.80;99.90;;;;;;5102968;28;20224;-77
2023/07/06 02:23:15;;;;;;;1.40;1.30;;;17.80;99.90;;;;;;5097301;28;20241;-77
2023/07/06 02:25:44;;;;;;;1.27;1.20;;;17.90;99.90;;;;;;5105965;28;20280;-77
2023/07/06 02:28:11;;;;;;;1.65;1.52;;;17.80;99.90;;;;;;5104851;28;20213;-77
2023/07/06 02:30:38;;;;;;;1.90;1.80;;;17.80;99.90;;;;;;5103331;28;20197;-78
2023/07/06 02:33:05;;;;;;;1.40;1.30;;;17.90;99.90;;;;;;5104205;28;20254;-77
2023/07/06 02:35:33;;;;;;;1.65;1.45;;;17.90;99.90;;;;;;5105139;28;20758;-76
2023/07/06 02:38:01;;;;;;;1.40;1.30;;;17.80;99.90;;;;;;5105138;28;20602;-78
2023/07/06 02:40:29;;;;;;;1.65;1.52;;;17.70;99.90;;;;;;5104272;28;20650;-77
2023/07/06 02:42:56;;;;;;;1.50;1.40;;;17.70;99.90;;;;;;5104078;28;20249;-77
2023/07/06 02:45:23;;;;;;;2.60;1.55;;;17.70;99.90;;;;;;5100546;28;20198;-76
2023/07/06 02:47:50;;;;;;;1.48;1.38;;;17.80;99.90;;;;;;5103354;28;20201;-77
2023/07/06 02:50:19;;;;;;;1.17;1.17;;;17.90;99.90;;;;;;5104256;28;20192;-77
2023/07/06 02:52:47;;;;;;;1.20;1.20;;;17.90;99.90;;;;;;5103890;28;20224;-77
2023/07/06 02:55:16;;;;;;;1.45;1.35;;;17.80;99.90;;;;;;5100719;28;20197;-76
2023/07/06 02:57:43;;;;;;;1.20;1.20;;;17.80;99.90;;;;;;5102856;28;20288;-77
2023/07/06 03:00:14;;;;;;;1.52;1.42;;;17.80;99.90;;;;;;5105848;28;20213;-78
2023/07/06 03:02:41;;;;;;;1.60;1.50;;;17.80;99.90;;;;;;5104605;28;20252;-78
2023/07/06 03:05:09;;;;;;;1.60;1.50;;;17.90;99.90;;;;;;5103983;28;20201;-77
2023/07/06 03:07:36;;;;;;;1.83;1.73;;;17.90;99.90;;;;;;5102722;28;20197;-76
2023/07/06 03:10:03;;;;;;;1.30;1.30;;;17.90;99.90;;;;;;5104848;28;20680;-78
2023/07/06 03:12:36;;;;;;;1.60;1.50;;;18.00;99.90;;;;;;5104777;28;20296;-78
2023/07/06 03:15:05;;;;;;;1.63;1.52;;;18.00;99.90;;;;;;5106150;28;20197;-77
2023/07/06 03:17:32;;;;;;;1.75;1.65;;;18.10;99.90;;;;;;5101750;28;20201;-77
2023/07/06 03:19:59;;;;;;;1.88;1.77;;;18.10;99.90;;;;;;5098228;28;20690;-78
2023/07/06 03:22:27;;;;;;;1.67;1.58;;;18.20;99.90;;;;;;5102105;28;20785;-77
2023/07/06 03:24:54;;;;;;;1.50;1.40;;;18.10;99.90;;;;;;5102775;28;20661;-78
2023/07/06 03:27:21;;;;;;;1.50;1.40;;;18.00;99.90;;;;;;5101882;28;20256;-78
2023/07/06 03:29:49;;;;;;;1.48;1.38;;;18.00;99.90;;;;;;5099345;28;20205;-77
2023/07/06 03:32:18;;;;;;;1.40;1.30;;;17.90;99.90;;;;;;5098888;28;20702;-78
2023/07/06 03:34:45;;;;;;;1.70;1.60;;;17.80;99.90;;;;;;5104883;28;20258;-77
2023/07/06 03:37:12;;;;;;;2.25;1.98;;;17.70;99.90;;;;;;5104057;28;20206;-77
2023/07/06 03:39:39;;;;;;;1.92;1.60;;;17.60;99.90;;;;;;5101614;28;20205;-77
2023/07/06 03:42:08;;;;;;;1.52;1.42;;;17.40;99.90;;;;;;5108091;28;20277;-78
2023/07/06 03:44:35;;;;;;;4.10;1.65;;;17.50;99.90;;;;;;5103943;28;20208;-78
2023/07/06 03:47:03;;;;;;;1.90;1.80;;;17.40;99.90;;;;;;5101543;28;20197;-76
2023/07/06 03:49:33;;;;;;;1.90;1.80;;;17.50;99.90;;;;;;5104898;28;20205;-77
2023/07/06 03:52:02;;;;;;;1.75;1.65;;;17.60;99.90;;;;;;5099700;28;20214;-77
2023/07/06 03:54:29;;;;;;;1.65;1.55;;;17.60;99.90;;;;;;5100848;28;20197;-78
2023/07/06 03:56:57;;;;;;;1.98;1.80;;;17.70;99.90;;;;;;5106755;28;20201;-77
2023/07/06 03:59:24;;;;;;;2.13;1.85;;;17.80;99.90;;;;;;5107376;28;20233;-77
2023/07/06 04:01:51;;;;;;;1.85;1.75;;;18.00;99.90;;;;;;5096709;28;20694;-77
2023/07/06 04:04:26;;;;;;;1.88;1.77;;;18.20;99.90;;;;;;5100472;28;20242;-78
2023/07/06 04:06:53;;;;;;;1.80;1.70;;;18.30;99.90;;;;;;5103883;28;20204;-77
2023/07/06 04:09:20;;;;;;;1.90;1.80;;;18.30;99.90;;;;;;5102233;28;20201;-77
2023/07/06 04:11:47;;;;;;;1.50;1.40;;;18.40;99.90;;;;;;5108375;28;20632;-78
2023/07/06 04:14:15;;;;;;;1.60;1.50;;;18.30;99.90;;;;;;5104771;28;20229;-78
2023/07/06 04:16:42;;;;;;;1.77;1.60;;;18.30;99.90;;;;;;5103542;28;20753;-77
2023/07/06 04:19:10;;;;;;;1.65;1.55;;;18.20;99.90;;;;;;5104976;28;20201;-77
2023/07/06 04:21:38;;;;;;;1.60;1.50;;;18.20;99.90;;;;;;5099270;28;20300;-78
2023/07/06 04:24:07;;;;;;;1.60;1.50;;;18.20;99.90;;;;;;5102042;28;20236;-77
2023/07/06 04:26:34;;;;;;;1.50;1.40;;;18.20;99.90;;;;;;5103682;28;20181;-76
2023/07/06 04:29:02;;;;;;;1.60;1.50;;;18.20;99.90;;;;;;5093596;28;20229;-77
2023/07/06 04:31:29;;;;;;;1.80;1.70;;;18.20;99.90;;;;;;5102069;28;20355;-77
2023/07/06 04:33:56;;;;;;;1.50;1.40;;;18.30;99.90;;;;;;5103561;28;20207;-77
2023/07/06 04:36:23;;;;;;;1.73;1.60;;;18.30;99.90;;;;;;5105602;28;20285;-77
2023/07/06 04:38:51;;;;;;;1.77;1.65;;;18.30;99.90;;;;;;5106752;28;20228;-78
2023/07/06 04:41:18;;;;;;;1.27;1.17;;;18.30;99.90;;;;;;5107305;28;20647;-78
2023/07/06 04:43:45;;;;;;;1.70;1.50;;;18.20;99.90;;;;;;5106129;28;20193;-78
2023/07/06 04:46:12;;;;;;;1.67;1.58;;;18.30;99.90;;;;;;5105198;28;20198;-78
2023/07/06 04:48:40;;;;;;;2.88;1.80;;;18.30;99.90;;;;;;5108681;28;20776;-78
2023/07/06 04:51:08;;;;;;;1.70;1.60;;;18.30;99.90;;;;;;5098853;28;20731;-77
2023/07/06 04:53:37;;;;;;;1.63;1.50;;;18.40;99.90;;;;;;5101811;28;20193;-76
2023/07/06 04:56:07;;;;;;;1.80;1.70;;;18.50;99.90;;;;;;5102033;28;20668;-76
2023/07/06 04:58:34;;;;;;;1.58;1.48;;;18.70;99.90;;;;;;5098868;28;20228;-77
2023/07/06 05:01:06;;;;;;;3.55;1.88;;;18.70;99.90;;;;;;5102411;28;20213;-77
2023/07/06 05:03:33;;;;;;;1.80;1.70;;;18.70;99.90;;;;;;5101264;28;20667;-78
2023/07/06 05:06:03;;;;;;;1.92;1.83;;;18.80;99.90;;;;;;5100075;28;20193;-78
2023/07/06 05:08:31;;;;;;;1.67;1.58;;;18.80;99.90;;;;;;5106012;28;20203;-78
2023/07/06 05:10:59;;;;;;;1.45;1.35;;;18.90;99.90;;;;;;5102259;28;20256;-78
2023/07/06 05:13:27;;;;;;;2.13;1.92;;;18.90;99.90;;;;;;5104035;28;20233;-77
2023/07/06 05:15:55;;;;;;;1.50;1.40;;;18.90;99.90;;;;;;5100400;28;20625;-79
2023/07/06 05:18:22;;;;;;;1.92;1.83;;;18.80;99.90;;;;;;5099328;28;20247;-79
2023/07/06 05:20:50;;;;;;;1.52;1.42;;;18.80;99.90;;;;;;5095100;28;20197;-78
2023/07/06 05:23:17;;;;;;;1.65;1.55;;;18.80;99.90;;;;;;5101741;28;20762;-78
2023/07/06 05:25:44;;;;;;;1.77;1.60;;;18.80;99.90;;;;;;5104862;28;20228;-78
2023/07/06 05:28:11;;;;;;;2.55;1.70;;;18.80;99.90;;;;;;5106397;28;20232;-79
2023/07/06 05:30:40;;;;;;;2.10;1.90;;;18.80;99.90;;;;;;5100865;28;20201;-77
2023/07/06 05:33:07;;;;;;;2.05;1.85;;;18.70;99.90;;;;;;5104926;28;20228;-78
2023/07/06 05:35:34;;;;;;;1.80;1.70;;;18.50;99.90;;;;;;5102139;28;20773;-78
2023/07/06 05:38:01;;;;;;;2.17;2.08;;;18.50;99.90;;;;;;5100133;28;20201;-79
2023/07/06 05:40:28;;;;;;;2.20;2.05;;;18.40;99.90;;;;;;5103004;28;21808;-78
2023/07/06 05:42:55;;;;;;;3.33;2.30;;;18.30;99.90;;;;;;5102144;28;20282;-79
2023/07/06 05:45:22;;;;;;;2.15;1.95;;;18.20;99.90;;;;;;5104623;28;20788;-78
2023/07/06 05:47:51;;;;;;;2.30;2.10;;;18.20;99.90;;;;;;5099618;28;20201;-78
2023/07/06 05:50:18;;;;;;;2.22;2.03;;;18.10;99.90;;;;;;5102448;28;20544;-78
2023/07/06 05:52:45;;;;;;;3.75;2.40;;;18.00;99.90;;;;;;5102748;28;20213;-78
2023/07/06 05:55:12;;;;;;;2.55;2.35;;;17.80;99.90;;;;;;5106038;28;20236;-78
2023/07/06 05:57:39;;;;;;;2.42;2.22;;;17.60;99.90;;;;;;5104519;28;20680;-78
2023/07/06 06:00:09;;;;;;;2.30;2.10;;;17.60;99.90;;;;;;5098506;28;20236;-78
2023/07/06 06:02:37;;;;;;;2.90;2.60;;;17.80;99.90;;;;;;5102190;28;20209;-78
2023/07/06 06:05:06;;;;;;;2.28;2.05;;;17.90;99.90;;;;;;5108556;28;20178;-79
2023/07/06 06:07:33;;;;;;;2.20;2.00;;;18.10;99.90;;;;;;5102952;28;20243;-77
2023/07/06 06:10:03;;;;;;;1.90;1.80;;;18.20;99.90;;;;;;5102986;28;20651;-78
2023/07/06 06:12:31;;;;;;;2.55;2.35;;;18.30;99.90;;;;;;5094638;28;20221;-78
2023/07/06 06:14:59;;;;;;;2.20;2.00;;;18.30;99.90;;;;;;5096512;28;20391;-78
2023/07/06 06:17:28;;;;;;;2.22;2.10;;;18.30;99.90;;;;;;5099485;28;20205;-79
2023/07/06 06:19:55;;;;;;;2.58;2.35;;;18.40;99.90;;;;;;5102900;28;20227;-78
2023/07/06 06:22:24;;;;;;;2.50;2.30;;;18.50;99.90;;;;;;5098761;28;20253;-79
2023/07/06 06:24:52;;;;;;;2.42;2.22;;;18.70;99.90;;;;;;5108458;27;20193;-79
2023/07/06 06:27:19;;;;;;;2.25;2.05;;;18.90;99.90;;;;;;5109647;28;20229;-78
2023/07/06 06:29:47;;;;;;;6.10;2.33;;;18.90;99.90;;;;;;5105880;28;20200;-78
2023/07/06 06:32:14;;;;;;;2.65;2.45;;;18.80;99.90;;;;;;5103290;27;20244;-77
2023/07/06 06:34:42;;;;;;;3.00;2.70;;;18.50;99.90;;;;;;5103929;28;20196;-77
2023/07/06 06:37:10;;;;;;;3.17;2.95;;;18.20;99.90;;;;;;5105694;28;20209;-78
2023/07/06 06:39:39;;;;;;;3.17;2.70;;;18.00;99.90;;;;;;5109052;28;20197;-77
2023/07/06 06:42:07;;;;;;;2.60;2.40;;;17.90;99.90;;;;;;5096984;28;20222;-78
2023/07/06 06:44:35;;;;;;;2.65;2.45;;;17.90;99.90;;;;;;5107144;28;20701;-78
2023/07/06 06:47:04;;;;;;;2.00;1.90;;;18.00;99.90;;;;;;5108470;28;20197;-77
2023/07/06 06:49:33;;;;;;;2.50;2.30;;;18.10;99.90;;;;;;5101573;27;20228;-77
2023/07/06 06:52:01;;;;;;;2.45;2.25;;;18.20;99.90;;;;;;5101911;28;20240;-79
2023/07/06 06:54:28;;;;;;;2.03;1.92;;;18.30;99.90;;;;;;5100986;28;20251;-78
2023/07/06 06:56:58;;;;;;;2.30;2.10;;;18.40;99.90;;;;;;5098792;28;20200;-77
2023/07/06 06:59:25;;;;;;;2.47;2.28;;;18.50;99.90;;;;;;5099321;28;20741;-77
2023/07/06 07:01:53;;;;;;;2.78;2.40;;;18.50;99.90;;;;;;5093570;28;20711;-77
2023/07/06 07:04:21;;;;;;;3.38;2.80;;;18.50;99.90;;;;;;5097243;28;20205;-76
2023/07/06 07:06:48;;;;;;;2.83;2.00;;;18.40;99.90;;;;;;5095391;28;20200;-77
2023/07/06 07:09:15;;;;;;;2.90;2.70;;;18.30;99.90;;;;;;5103393;28;20633;-76
2023/07/06 07:11:42;;;;;;;3.25;2.95;;;18.30;99.90;;;;;;5100809;28;20316;-77
2023/07/06 07:14:10;;;;;;;2.90;2.70;;;18.20;99.90;;;;;;5101586;28;20291;-78
2023/07/06 07:16:39;;;;;;;3.22;2.85;;;18.10;99.90;;;;;;5101238;28;20205;-78
2023/07/06 07:19:06;;;;;;;3.50;2.47;;;18.00;99.90;;;;;;5102465;28;20211;-76
2023/07/06 07:21:33;;;;;;;2.85;2.55;;;17.90;99.90;;;;;;5101778;28;20643;-78
2023/07/06 07:24:00;;;;;;;2.75;2.55;;;17.80;99.90;;;;;;5094564;28;20296;-78
2023/07/06 07:26:29;;;;;;;2.30;2.10;;;17.80;99.90;;;;;;5097158;28;20658;-77
2023/07/06 07:28:56;;;;;;;2.30;2.20;;;18.00;99.90;;;;;;5093744;28;20197;-77
2023/07/06 07:31:26;;;;;;;2.72;2.53;;;18.00;99.90;;;;;;5093882;28;20217;-77
2023/07/06 07:33:54;;;;;;;2.78;2.28;;;17.90;99.90;;;;;;5104950;27;20207;-77
2023/07/06 07:36:21;;;;;;;3.00;2.72;;;17.90;99.90;;;;;;5095904;27;20198;-77
2023/07/06 07:38:50;;;;;;;2.90;2.35;;;17.90;99.90;;;;;;5097893;28;20207;-78
2023/07/06 07:41:19;;;;;;;2.28;2.08;;;17.90;99.90;;;;;;5096952;28;20213;-77
2023/07/06 07:43:48;;;;;;;2.33;2.13;;;17.90;99.90;;;;;;5103967;28;20193;-77
2023/07/06 07:46:17;;;;;;;2.00;1.90;;;18.00;99.90;;;;;;5102734;28;20205;-78
2023/07/06 07:48:49;;;;;;;3.15;2.00;;;18.00;99.90;;;;;;5099306;28;20284;-77
2023/07/06 07:51:19;;;;;;;2.50;2.30;;;18.10;99.90;;;;;;5096141;27;20908;-78
2023/07/06 07:53:46;;;;;;;2.55;2.35;;;18.20;99.90;;;;;;5101655;28;20197;-77
2023/07/06 07:56:15;;;;;;;2.75;2.55;;;18.20;99.90;;;;;;5101816;28;20212;-77
2023/07/06 07:58:45;;;;;;;3.05;2.83;;;18.10;99.90;;;;;;5102656;28;20209;-77
2023/07/06 08:01:13;;;;;;;2.65;2.42;;;18.00;99.90;;;;;;5103016;28;20231;-77
2023/07/06 08:03:40;;;;;;;2.83;2.50;;;17.90;99.90;;;;;;5099824;28;20217;-76
2023/07/06 08:06:10;;;;;;;3.30;3.00;;;17.90;99.90;;;;;;5099235;28;20720;-77
2023/07/06 08:08:39;;;;;;;3.70;2.78;;;17.90;99.90;;;;;;5100350;28;20291;-77
2023/07/06 08:11:07;;;;;;;4.22;2.75;;;17.90;99.90;;;;;;5098655;28;20300;-76
2023/07/06 08:13:35;;;;;;;2.22;2.13;;;17.80;99.90;;;;;;5100251;28;20212;-76
2023/07/06 08:16:03;;;;;;;2.97;2.70;;;17.80;99.90;;;;;;5095344;28;20197;-76
2023/07/06 08:18:30;;;;;;;2.47;2.28;;;17.80;99.90;;;;;;5097459;28;20204;-76
2023/07/06 08:20:58;;;;;;;2.53;2.33;;;17.80;99.90;;;;;;5094404;28;20213;-75
2023/07/06 08:23:28;;;;;;;2.47;2.28;;;17.80;99.90;;;;;;5096085;28;20304;-76
2023/07/06 08:25:56;;;;;;;3.50;2.42;;;17.80;99.90;;;;;;5096817;28;20251;-77
2023/07/06 08:28:24;;;;;;;2.45;2.35;;;17.80;99.90;;;;;;5097337;28;20197;-76
2023/07/06 08:30:52;;;;;;;1.80;1.70;;;17.80;99.90;;;;;;5093117;28;20201;-76
2023/07/06 08:33:21;;;;;;;2.35;2.20;;;17.90;99.90;;;;;;5090971;28;21076;-75
2023/07/06 08:35:49;;;;;;;3.83;2.67;;;18.00;99.90;;;;;;5091031;28;20207;-76
2023/07/06 08:38:16;;;;;;;2.50;2.30;;;18.00;99.90;;;;;;5095197;28;20200;-76
2023/07/06 08:40:50;;;;;;;3.65;2.80;;;17.90;99.90;;;;;;5093715;28;20297;-76
2023/07/06 08:43:21;;;;;;;2.97;2.67;;;17.90;99.90;;;;;;5089577;28;20758;-76
2023/07/06 08:45:52;;;;;;;2.80;2.60;;;17.90;99.90;;;;;;5090209;28;20324;-77
2023/07/06 08:48:22;;;;;;;2.45;2.10;;;17.90;99.90;;;;;;5091666;28;20197;-76
2023/07/06 08:50:54;;;;;;;2.15;2.00;;;17.90;99.90;;;;;;5089598;28;20282;-76
2023/07/06 08:53:27;;;;;;;3.33;1.92;;;18.00;99.90;;;;;;5092516;28;20197;-76
2023/07/06 08:55:57;;;;;;;2.13;2.03;;;18.10;99.90;;;;;;5089209;28;21028;-75
2023/07/06 08:58:28;;;;;;;2.70;1.70;;;18.30;99.90;;;;;;5090745;28;20262;-76
2023/07/06 09:01:02;;;;;;;2.17;1.98;;;18.60;99.90;;;;;;5096937;28;20287;-77
2023/07/06 09:03:40;;;;;;;1.80;1.70;;;18.70;99.90;;;;;;5091744;28;20213;-76
2023/07/06 09:06:12;;;;;;;2.10;2.00;;;18.90;99.90;;;;;;5087649;28;20616;-77
2023/07/06 09:08:42;;;;;;;2.53;2.33;;;18.90;99.90;;;;;;5092346;28;20194;-77
2023/07/06 09:11:10;;;;;;;1.80;1.70;;;18.80;99.90;;;;;;5089616;28;20696;-77
2023/07/06 09:13:45;;;;;;;2.67;2.47;;;18.80;99.90;;;;;;5099358;28;20207;-76
2023/07/06 09:16:13;;;;;;;3.13;2.92;;;18.80;99.90;;;;;;5088660;28;20786;-77
2023/07/06 09:18:42;;;;;;;3.20;2.90;;;18.80;99.90;;;;;;5090340;28;20201;-77
2023/07/06 09:21:10;;;;;;;2.60;2.40;;;18.80;99.90;;;;;;5093493;28;20281;-76
2023/07/06 09:23:36;;;;;;;2.60;2.40;;;18.80;99.90;;;;;;5091361;28;20639;-76
2023/07/06 09:26:08;;;;;;;2.22;2.03;;;18.90;99.90;;;;;;5087500;28;20251;-75
2023/07/06 09:28:36;;;;;;;2.60;2.40;;;19.00;99.90;;;;;;5094589;28;20242;-76
2023/07/06 09:31:08;;;;;;;2.22;2.13;;;19.10;99.90;;;;;;5089279;28;20225;-76
2023/07/06 09:33:35;;;;;;;2.50;2.30;;;19.20;99.90;;;;;;5090932;28;20296;-77
2023/07/06 09:36:06;;;;;;;2.60;2.40;;;19.30;99.90;;;;;;5090649;28;20558;-76
2023/07/06 09:38:45;;;;;;;2.05;1.92;;;19.40;99.90;;;;;;5089895;28;20232;-77
2023/07/06 09:41:23;;;;;;;2.03;1.88;;;19.50;99.90;;;;;;5086486;28;20293;-77
2023/07/06 09:43:57;;;;;;;3.38;2.03;;;19.70;99.90;;;;;;5091877;28;20299;-76
2023/07/06 09:46:27;;;;;;;5.03;2.40;;;20.00;99.90;;;;;;5096579;28;20994;-76
2023/07/06 09:48:54;;;;;;;2.70;2.50;;;20.00;99.90;;;;;;5095306;28;20221;-76
2023/07/06 09:51:26;;;;;;;2.60;2.40;;;19.90;99.90;;;;;;5095214;28;20681;-76
2023/07/06 09:53:56;;;;;;;2.83;2.30;;;19.90;99.90;;;;;;5095167;28;20772;-76
2023/07/06 09:56:24;;;;;;;2.60;2.40;;;19.80;99.90;;;;;;5113708;28;20675;-76
2023/07/06 09:58:52;;;;;;;2.65;2.30;;;19.70;99.90;;;;;;5100118;28;20211;-75
2023/07/06 10:01:31;;;;;;;3.33;2.58;;;19.60;99.90;;;;;;5098338;28;20236;-76
2023/07/06 10:04:05;;;;;;;2.40;2.20;;;19.50;99.90;;;;;;5094898;28;20227;-76
2023/07/06 10:06:51;;;;;;;2.10;2.00;;;19.40;99.90;;;;;;5097887;28;20274;-76
2023/07/06 10:09:23;;;;;;;2.30;2.20;;;19.40;99.90;;;;;;5101163;28;20229;-77
2023/07/06 10:11:55;;;;;;;2.10;2.00;;;19.30;99.90;;;;;;5099394;28;20323;-77
2023/07/06 10:14:30;;;;;;;1.83;1.73;;;19.20;99.90;;;;;;5106656;28;20201;-78
2023/07/06 10:17:07;;;;;;;2.42;2.20;;;19.10;99.90;;;;;;5109567;27;20257;-79
2023/07/06 10:19:40;;;;;;;2.90;2.70;;;19.20;99.90;;;;;;5107987;28;20205;-79
2023/07/06 10:22:18;;;;;;;2.95;2.72;;;19.30;99.90;;;;;;5096154;28;20300;-78
2023/07/06 10:24:53;;;;;;;2.65;2.45;;;19.40;99.90;;;;;;5097779;27;20579;-77
2023/07/06 10:27:26;;;;;;;2.30;2.08;;;19.50;99.90;;;;;;5101643;28;20224;-78
2023/07/06 10:30:01;;;;;;;2.28;2.08;;;19.60;99.90;;;;;;5101410;28;20240;-77
2023/07/06 10:32:33;;;;;;;2.20;1.90;;;19.70;99.90;;;;;;5098393;28;20244;-76
2023/07/06 10:35:04;;;;;;;2.17;2.00;;;19.80;99.90;;;;;;5098453;28;20245;-77
2023/07/06 10:37:31;;;;;;;2.45;2.20;;;19.90;99.90;;;;;;5097838;28;20660;-76
2023/07/06 10:40:16;;;;;;;2.55;2.10;;;20.10;99.90;;;;;;5101710;28;20293;-78
2023/07/06 10:42:48;;;;;;;2.90;2.33;;;20.20;99.90;;;;;;5095038;28;20222;-75
2023/07/06 10:45:42;;;;;;;2.60;2.40;;;20.30;99.90;;;;;;5096715;28;20697;-76
2023/07/06 10:48:13;;;;;;;2.55;2.00;;;20.40;99.90;;;;;;5101596;28;20208;-75
2023/07/06 10:50:47;;;;;;;1.90;1.80;;;20.30;99.90;;;;;;5096516;28;20204;-74
2023/07/06 10:53:25;;;;;;;4.30;2.40;;;20.30;99.90;;;;;;5101917;28;20215;-75
2023/07/06 10:55:58;;;;;;;2.08;1.88;;;20.60;99.90;;;;;;5098646;28;20860;-76
2023/07/06 10:58:29;;;;;;;2.80;2.55;;;20.90;99.90;;;;;;5102075;28;20229;-76
2023/07/06 11:00:59;;;;;;;3.30;2.58;;;21.00;99.90;;;;;;5100111;28;20221;-77
2023/07/06 11:03:28;;;;;;;2.92;2.60;;;21.00;99.90;;;;;;5096227;28;20320;-75
2023/07/06 11:05:58;;;;;;;4.60;2.90;;;20.90;99.90;;;;;;5093920;27;20190;-76
2023/07/06 11:09:03;;;;;;;2.83;2.63;;;20.90;99.90;;;;;;5097974;28;20209;-76
2023/07/06 11:11:34;;;;;;;3.28;2.50;;;21.10;99.90;;;;;;5097455;28;20319;-75
2023/07/06 11:14:24;;;;;;;4.30;2.80;;;21.20;99.90;;;;;;5099105;28;20309;-77
2023/07/06 11:16:56;;;;;;;2.35;2.15;;;21.40;99.90;;;;;;5102791;28;20232;-76
2023/07/06 11:19:28;;;;;;;2.95;2.20;;;21.40;99.90;;;;;;5092568;28;20304;-76
2023/07/06 11:22:01;;;;;;;2.78;2.58;;;21.40;99.90;;;;;;5101676;28;20239;-76
2023/07/06 11:24:33;;;;;;;5.72;2.67;;;21.40;99.90;;;;;;5101141;28;20212;-76
2023/07/06 11:27:06;;;;;;;3.00;2.70;;;21.10;99.90;;;;;;5101765;28;20196;-76
2023/07/06 11:29:33;;;;;;;3.78;2.90;;;20.90;99.90;;;;;;5096214;28;20204;-75
2023/07/06 11:32:19;;;;;;;3.15;2.40;;;20.70;99.90;;;;;;5103982;28;20897;-75
2023/07/06 11:35:02;;;;;;;3.17;2.97;;;20.60;99.90;;;;;;5099960;28;20200;-76
2023/07/06 11:37:40;;;;;;;4.10;3.70;;;20.50;99.90;;;;;;5106141;28;20770;-76
2023/07/06 11:40:23;;;;;;;3.40;3.10;;;20.30;99.90;;;;;;5107316;28;20337;-75
2023/07/06 11:43:11;;;;;;;3.30;3.00;;;20.10;99.90;;;;;;5103978;28;20703;-76
2023/07/06 11:45:45;;;;;;;4.10;3.80;;;19.90;99.90;;;;;;5104552;28;20261;-76
2023/07/06 11:48:26;;;;;;;3.83;3.53;;;19.80;99.90;;;;;;5101707;28;20699;-76
2023/07/06 11:50:54;;;;;;;4.40;4.00;;;19.80;99.90;;;;;;5114937;28;20220;-78
2023/07/06 11:53:42;;;;;;;4.55;3.83;;;19.80;99.90;;;;;;5114734;28;20288;-75
2023/07/06 11:59:00;;;;;;;3.53;3.22;;;20.10;99.90;;;;;;5106923;28;20193;-76
2023/07/06 12:01:42;;;;;;;3.40;3.10;;;20.50;99.90;;;;;;5116450;28;20220;-76
2023/07/06 12:04:18;;;;;;;3.22;2.92;;;21.10;99.90;;;;;;5110706;28;20210;-77
2023/07/06 12:06:46;;;;;;;2.60;2.40;;;21.70;99.90;;;;;;5111146;28;20204;-75
2023/07/06 12:09:19;;;;;;;3.08;2.78;;;22.10;99.90;;;;;;5108972;28;20633;-75
2023/07/06 12:11:49;;;;;;;4.20;3.03;;;22.40;99.90;;;;;;5105189;28;20221;-77
2023/07/06 12:14:20;;;;;;;3.45;2.50;;;22.60;99.90;;;;;;5099613;28;20296;-76
2023/07/06 12:16:48;;;;;;;2.95;2.70;;;22.80;99.90;;;;;;5105609;28;20245;-76
2023/07/06 12:19:18;;;;;;;3.25;2.95;;;22.80;99.90;;;;;;5104211;28;21249;-75
2023/07/06 12:21:50;;;;;;;3.40;3.10;;;23.00;99.90;;;;;;5102219;28;20219;-77
2023/07/06 12:24:25;;;;;;;3.22;2.92;;;23.30;99.90;;;;;;5106695;28;20217;-76
2023/07/06 12:26:55;;;;;;;2.50;2.30;;;23.40;99.90;;;;;;5102965;28;20258;-77
2023/07/06 12:29:23;;;;;;;2.08;1.98;;;23.20;99.90;;;;;;5104546;28;20296;-76
2023/07/06 12:31:52;;;;;;;2.90;2.70;;;23.20;99.90;;;;;;5092743;28;20275;-77
2023/07/06 12:34:26;;;;;;;3.00;2.80;;;23.30;99.90;;;;;;5090998;28;20208;-77
2023/07/06 12:36:56;;;;;;;2.50;2.30;;;23.40;99.90;;;;;;5084809;28;20643;-77
2023/07/06 12:39:25;;;;;;;2.80;2.60;;;23.40;99.90;;;;;;5096683;28;20297;-76
2023/07/06 12:41:53;;;;;;;3.13;2.83;;;23.30;99.90;;;;;;5070013;28;20270;-77
2023/07/06 12:44:24;;;;;;;2.67;2.47;;;23.50;99.90;;;;;;5038165;28;20354;-76
2023/07/06 12:46:53;;;;;;;3.28;2.58;;;23.80;99.90;;;;;;5039031;28;20199;-76
2023/07/06 12:49:23;;;;;;;2.42;2.22;;;24.10;99.90;;;;;;5026746;28;20302;-77
2023/07/06 12:51:54;;;;;;;4.03;2.47;;;24.30;99.90;;;;;;5024012;28;20313;-76
2023/07/06 12:54:24;;;;;;;2.70;2.50;;;24.60;99.90;;;;;;5030173;28;20213;-77
2023/07/06 12:56:59;;;;;;;2.50;2.30;;;24.70;99.90;;;;;;5035094;28;20218;-77
2023/07/06 12:59:32;;;;;;;2.25;2.05;;;24.60;99.90;;;;;;5025141;28;21221;-76
2023/07/06 13:01:59;;;;;;;2.67;2.47;;;24.70;99.90;;;;;;5032996;28;20222;-79
2023/07/06 13:04:43;;;;;;;3.05;2.75;;;24.50;99.90;;;;;;5033545;28;20251;-77
2023/07/06 13:07:10;;;;;;;2.60;2.40;;;24.40;99.90;;;;;;5031609;28;20760;-76